Time;durP1;ratioP1;P1;durP2;ratioP2;P2;SDS_P1;SDS_P2;PMS_P1;PMS_P2;Temp;Humidity;BMP_temperature;BMP_pressure;BME280_temperature;BME280_humidity;BME280_pressure;Samples;Min_cycle;Max_cycle;Signal;HPM_P1;HPM_P2
2022/09/16 00:00:59;;;;;;;2.97;2.47;;;12.70;1.00;;;;;;6285825;28;20880;-55
2022/09/16 00:04:04;;;;;;;2.50;2.30;;;12.70;1.00;;;;;;6283562;28;20237;-55
2022/09/16 00:07:07;;;;;;;3.93;2.60;;;12.70;1.00;;;;;;6278496;28;20245;-55
2022/09/16 00:10:10;;;;;;;2.20;2.10;;;12.60;1.00;;;;;;6284765;28;20240;-55
2022/09/16 00:13:13;;;;;;;2.40;2.30;;;12.60;1.00;;;;;;6282108;28;20233;-55
2022/09/16 00:16:20;;;;;;;3.67;2.47;;;12.60;1.00;;;;;;6287092;28;20233;-54
2022/09/16 00:19:24;;;;;;;2.70;2.47;;;12.50;1.00;;;;;;6280488;28;20595;-55
2022/09/16 00:22:28;;;;;;;2.37;2.20;;;12.50;1.00;;;;;;6285632;28;20229;-55
2022/09/16 00:25:32;;;;;;;2.60;2.40;;;12.50;1.00;;;;;;6284946;28;20616;-56
2022/09/16 00:28:35;;;;;;;2.67;2.30;;;12.50;1.00;;;;;;6286755;28;20733;-54
2022/09/16 00:31:38;;;;;;;2.53;2.40;;;12.50;1.00;;;;;;6281620;28;20233;-55
2022/09/16 00:34:43;;;;;;;2.50;2.33;;;12.40;1.00;;;;;;6280163;28;20641;-54
2022/09/16 00:37:45;;;;;;;2.30;2.10;;;12.40;1.00;;;;;;6282394;28;20300;-55
2022/09/16 00:40:49;;;;;;;2.23;2.13;;;12.30;1.00;;;;;;6289326;28;20248;-56
2022/09/16 00:43:55;;;;;;;2.40;2.30;;;12.30;1.00;;;;;;6282122;28;20757;-55
2022/09/16 00:46:58;;;;;;;2.43;2.30;;;12.30;1.00;;;;;;6291763;28;20241;-54
2022/09/16 00:50:07;;;;;;;2.30;2.20;;;12.30;1.00;;;;;;6295045;28;20397;-54
2022/09/16 00:53:15;;;;;;;3.37;2.77;;;12.30;1.00;;;;;;6289452;28;20229;-55
2022/09/16 00:56:22;;;;;;;2.50;2.37;;;12.20;1.00;;;;;;6282864;28;20233;-54
2022/09/16 00:59:29;;;;;;;3.87;2.50;;;12.20;1.00;;;;;;6286505;28;20237;-54
2022/09/16 01:02:32;;;;;;;2.60;2.47;;;12.20;1.00;;;;;;6282367;28;20244;-55
2022/09/16 01:05:38;;;;;;;2.20;2.10;;;12.20;1.00;;;;;;6289537;28;20229;-54
2022/09/16 01:08:42;;;;;;;2.40;2.27;;;12.20;1.00;;;;;;6290278;28;20251;-55
2022/09/16 01:11:45;;;;;;;3.77;2.50;;;12.10;1.00;;;;;;6281848;28;20494;-55
2022/09/16 01:14:54;;;;;;;2.30;2.13;;;12.20;1.00;;;;;;6289779;28;20817;-55
2022/09/16 01:18:12;;;;;;;2.70;2.50;;;12.10;1.00;;;;;;6290754;28;20225;-55
2022/09/16 01:21:42;;;;;;;2.80;2.70;;;12.10;1.00;;;;;;6286027;28;20230;-61
2022/09/16 01:24:54;;;;;;;2.93;2.53;;;12.10;1.00;;;;;;6287145;28;20232;-54
2022/09/16 01:28:18;;;;;;;2.47;2.30;;;12.10;1.00;;;;;;6279183;28;20233;-54
2022/09/16 01:31:28;;;;;;;2.50;2.40;;;12.00;1.00;;;;;;6286145;28;20238;-55
2022/09/16 01:34:42;;;;;;;5.10;2.77;;;12.00;1.00;;;;;;6283766;28;20308;-55
2022/09/16 01:37:55;;;;;;;2.83;2.73;;;12.00;1.00;;;;;;6282680;28;20678;-54
2022/09/16 01:41:06;;;;;;;3.27;2.60;;;11.90;1.00;;;;;;6290922;28;20360;-54
2022/09/16 01:44:20;;;;;;;2.80;2.70;;;11.90;1.00;;;;;;6281658;28;20256;-54
2022/09/16 01:47:34;;;;;;;2.50;2.40;;;11.90;1.00;;;;;;6285836;28;20229;-54
2022/09/16 01:50:41;;;;;;;2.70;2.60;;;11.90;1.00;;;;;;6289786;28;20233;-55
2022/09/16 01:53:52;;;;;;;2.53;2.43;;;11.80;1.00;;;;;;6284797;28;20597;-55
2022/09/16 01:57:03;;;;;;;3.90;2.87;;;11.90;1.00;;;;;;6285600;28;20229;-56
2022/09/16 02:00:10;;;;;;;2.80;2.60;;;11.90;1.00;;;;;;6280079;28;20251;-56
2022/09/16 02:03:20;;;;;;;2.83;2.67;;;11.80;1.00;;;;;;6288712;28;20678;-55
2022/09/16 02:06:25;;;;;;;2.90;2.70;;;11.90;1.00;;;;;;6288266;28;20244;-55
2022/09/16 02:09:31;;;;;;;3.37;3.07;;;11.80;1.00;;;;;;6292058;28;20237;-55
2022/09/16 02:12:40;;;;;;;3.00;2.80;;;11.80;1.00;;;;;;6303658;28;20603;-55
2022/09/16 02:15:47;;;;;;;4.43;3.30;;;11.80;1.00;;;;;;6298907;28;20240;-55
2022/09/16 02:18:56;;;;;;;2.93;2.80;;;11.80;1.00;;;;;;6285976;28;20240;-55
2022/09/16 02:22:03;;;;;;;4.00;3.53;;;11.70;1.00;;;;;;6291003;28;20241;-55
2022/09/16 02:25:09;;;;;;;4.67;3.30;;;11.70;1.00;;;;;;6280510;28;20241;-55
2022/09/16 02:28:17;;;;;;;4.90;3.13;;;11.70;1.00;;;;;;6282099;28;20262;-55
2022/09/16 02:31:25;;;;;;;3.10;2.90;;;11.60;1.00;;;;;;6285408;28;20341;-55
2022/09/16 02:34:35;;;;;;;3.37;3.10;;;11.60;1.00;;;;;;6280025;28;20674;-55
2022/09/16 02:37:43;;;;;;;7.17;3.23;;;11.60;1.00;;;;;;6283194;28;20244;-55
2022/09/16 02:40:50;;;;;;;4.73;3.53;;;11.60;1.00;;;;;;6281283;28;20244;-55
2022/09/16 02:43:53;;;;;;;4.10;3.10;;;11.60;1.00;;;;;;6287561;28;20233;-55
2022/09/16 02:47:01;;;;;;;3.47;2.97;;;11.60;1.00;;;;;;6284349;28;20228;-54
2022/09/16 02:50:13;;;;;;;3.57;3.33;;;11.60;1.00;;;;;;6293279;28;20705;-53
2022/09/16 02:53:27;;;;;;;3.50;3.13;;;11.60;1.00;;;;;;6288370;28;20502;-55
2022/09/16 02:56:33;;;;;;;5.00;3.30;;;11.60;1.00;;;;;;6290940;28;20236;-54
2022/09/16 02:59:37;;;;;;;5.73;3.67;;;11.60;1.00;;;;;;6295223;28;20233;-55
2022/09/16 03:02:40;;;;;;;3.67;3.13;;;11.50;1.00;;;;;;6295569;28;20767;-55
2022/09/16 03:06:14;;;;;;;4.10;3.50;;;11.50;1.00;;;;;;6288698;28;20229;-55
2022/09/16 03:09:22;;;;;;;3.20;3.10;;;11.50;1.00;;;;;;6282579;28;20239;-55
2022/09/16 03:12:41;;;;;;;4.53;3.53;;;11.50;1.00;;;;;;6299761;28;20237;-55
2022/09/16 03:15:55;;;;;;;3.50;3.20;;;11.50;1.00;;;;;;6300723;28;20232;-55
2022/09/16 03:19:09;;;;;;;3.80;3.50;;;11.60;1.00;;;;;;6290915;28;20235;-55
2022/09/16 03:22:23;;;;;;;4.27;3.83;;;11.50;1.00;;;;;;6290960;28;20236;-54
2022/09/16 03:25:42;;;;;;;5.47;3.50;;;11.50;1.00;;;;;;6286935;28;20244;-54
2022/09/16 03:28:54;;;;;;;6.50;3.37;;;11.50;1.00;;;;;;6292708;28;20705;-56
2022/09/16 03:32:02;;;;;;;4.53;3.67;;;11.50;1.00;;;;;;6266232;28;20238;-55
2022/09/16 03:35:11;;;;;;;3.43;3.23;;;11.50;1.00;;;;;;6290211;28;20639;-54
2022/09/16 03:38:18;;;;;;;7.83;3.50;;;11.50;1.00;;;;;;6293620;28;20233;-56
2022/09/16 03:41:21;;;;;;;3.87;3.53;;;11.50;1.00;;;;;;6290280;28;20224;-55
2022/09/16 03:44:31;;;;;;;3.93;3.63;;;11.40;1.00;;;;;;6292925;28;20236;-55
2022/09/16 03:47:34;;;;;;;4.07;3.67;;;11.40;1.00;;;;;;6294452;28;20241;-55
2022/09/16 03:50:38;;;;;;;10.00;3.60;;;11.50;1.00;;;;;;6288968;28;20696;-55
2022/09/16 03:53:42;;;;;;;4.07;3.70;;;11.50;1.00;;;;;;6286121;28;20247;-57
2022/09/16 03:56:45;;;;;;;3.87;3.50;;;11.60;1.00;;;;;;6279155;28;20322;-54
2022/09/16 03:59:48;;;;;;;6.73;3.87;;;11.50;1.00;;;;;;6288880;28;20236;-55
2022/09/16 04:02:51;;;;;;;3.93;3.63;;;11.50;1.00;;;;;;6274579;28;20349;-56
2022/09/16 04:05:54;;;;;;;3.80;3.50;;;11.50;1.00;;;;;;6284568;28;20552;-55
2022/09/16 04:08:59;;;;;;;5.00;4.60;;;11.60;1.00;;;;;;6291360;28;20221;-58
2022/09/16 04:12:02;;;;;;;5.13;3.83;;;11.50;1.00;;;;;;6288385;28;20791;-56
2022/09/16 04:15:06;;;;;;;12.87;5.10;;;11.50;1.00;;;;;;6283213;28;20244;-56
2022/09/16 04:18:09;;;;;;;4.70;4.30;;;11.50;1.00;;;;;;6283322;28;20240;-54
2022/09/16 04:21:12;;;;;;;5.13;4.63;;;11.50;1.00;;;;;;6290573;28;20232;-54
2022/09/16 04:24:16;;;;;;;4.90;4.47;;;11.50;1.00;;;;;;6297907;28;20485;-54
2022/09/16 04:27:19;;;;;;;8.47;4.70;;;11.50;1.00;;;;;;6288216;28;20241;-54
2022/09/16 04:30:22;;;;;;;5.50;4.50;;;11.50;1.00;;;;;;6285053;28;20234;-55
2022/09/16 04:33:27;;;;;;;8.30;4.57;;;11.50;1.00;;;;;;6290332;28;21022;-54
2022/09/16 04:36:30;;;;;;;5.37;4.50;;;11.40;1.00;;;;;;6290910;28;20244;-56
2022/09/16 04:39:35;;;;;;;11.43;4.47;;;11.40;1.00;;;;;;6284840;28;20289;-55
2022/09/16 04:42:38;;;;;;;7.10;4.47;;;11.40;1.00;;;;;;6286275;28;20388;-54
2022/09/16 04:45:40;;;;;;;3.90;3.70;;;11.40;1.00;;;;;;6286667;28;20896;-59
2022/09/16 04:48:43;;;;;;;6.83;4.20;;;11.40;1.00;;;;;;6288019;28;20266;-56
2022/09/16 04:51:47;;;;;;;4.27;4.07;;;11.40;1.00;;;;;;6291724;28;20244;-56
2022/09/16 04:54:51;;;;;;;5.67;4.20;;;11.50;1.00;;;;;;6289545;28;20260;-54
2022/09/16 04:57:54;;;;;;;4.50;4.20;;;11.40;1.00;;;;;;6284087;28;20249;-55
2022/09/16 05:01:03;;;;;;;4.30;4.00;;;11.40;1.00;;;;;;6285892;28;20255;-56
2022/09/16 05:04:07;;;;;;;7.37;4.27;;;11.40;1.00;;;;;;6263921;28;20277;-56
2022/09/16 05:07:10;;;;;;;4.47;4.07;;;11.40;1.00;;;;;;6292833;28;20229;-54
2022/09/16 05:10:14;;;;;;;4.40;4.00;;;11.40;1.00;;;;;;6289212;28;20259;-56
2022/09/16 05:13:17;;;;;;;3.30;3.20;;;11.40;1.00;;;;;;6284614;28;20229;-54
2022/09/16 05:16:22;;;;;;;4.60;4.20;;;11.40;1.00;;;;;;6282281;28;20229;-56
2022/09/16 05:19:25;;;;;;;4.17;3.80;;;11.30;1.00;;;;;;6292956;28;20334;-55
2022/09/16 05:22:27;;;;;;;4.00;3.60;;;11.40;1.00;;;;;;6289205;28;20259;-55
2022/09/16 05:25:33;;;;;;;4.50;3.53;;;11.40;1.00;;;;;;6290203;28;20313;-54
2022/09/16 05:28:36;;;;;;;6.27;3.50;;;11.40;1.00;;;;;;6293244;28;20586;-54
2022/09/16 05:31:41;;;;;;;3.83;3.57;;;11.40;1.00;;;;;;6285144;28;20241;-54
2022/09/16 05:34:44;;;;;;;3.97;3.40;;;11.50;1.00;;;;;;6266470;28;20244;-56
2022/09/16 05:37:46;;;;;;;4.97;3.53;;;11.40;1.00;;;;;;6263664;28;20244;-56
2022/09/16 05:40:51;;;;;;;4.77;3.53;;;11.50;1.00;;;;;;6284269;28;20233;-56
2022/09/16 05:43:56;;;;;;;5.03;3.70;;;11.40;1.00;;;;;;6287312;28;20241;-56
2022/09/16 05:46:59;;;;;;;4.30;3.90;;;11.50;1.00;;;;;;6290663;28;20237;-56
2022/09/16 05:50:02;;;;;;;4.00;3.33;;;11.60;1.00;;;;;;6297216;28;20660;-54
2022/09/16 05:53:05;;;;;;;4.73;3.33;;;11.60;1.00;;;;;;6286753;28;20237;-56
2022/09/16 05:56:13;;;;;;;3.90;3.57;;;11.70;1.00;;;;;;6292097;28;20732;-56
2022/09/16 05:59:17;;;;;;;8.17;3.60;;;11.70;1.00;;;;;;6285473;28;20258;-58
2022/09/16 06:02:20;;;;;;;3.63;3.33;;;11.70;1.00;;;;;;6285292;28;20241;-55
2022/09/16 06:05:22;;;;;;;5.20;3.70;;;11.70;1.00;;;;;;6292578;28;20413;-55
2022/09/16 06:08:25;;;;;;;3.40;3.20;;;11.80;1.00;;;;;;6289671;28;20254;-55
2022/09/16 06:11:30;;;;;;;4.23;3.23;;;11.80;1.00;;;;;;6296434;28;20232;-55
2022/09/16 06:14:33;;;;;;;4.77;3.70;;;11.80;1.00;;;;;;6289402;28;20230;-55
2022/09/16 06:17:36;;;;;;;8.40;4.13;;;11.80;1.00;;;;;;6290307;28;20903;-55
2022/09/16 06:20:38;;;;;;;8.73;3.57;;;11.90;1.00;;;;;;6294158;28;20305;-56
2022/09/16 06:23:42;;;;;;;4.83;3.90;;;11.90;1.00;;;;;;6291810;28;20239;-55
2022/09/16 06:26:48;;;;;;;3.43;3.20;;;12.00;1.00;;;;;;6287377;28;20237;-54
2022/09/16 06:29:51;;;;;;;7.97;3.80;;;12.10;1.00;;;;;;6289694;28;20236;-53
2022/09/16 06:32:53;;;;;;;6.60;4.03;;;12.20;1.00;;;;;;6288106;28;20237;-54
2022/09/16 06:35:57;;;;;;;5.07;3.97;;;12.20;1.00;;;;;;6292866;28;20237;-56
2022/09/16 06:39:00;;;;;;;4.60;3.40;;;12.20;1.00;;;;;;6293299;28;20234;-55
2022/09/16 06:42:06;;;;;;;4.73;3.77;;;12.20;1.00;;;;;;6297461;28;20234;-55
2022/09/16 06:45:10;;;;;;;6.37;4.10;;;12.20;1.00;;;;;;6290667;28;20247;-58
2022/09/16 06:48:13;;;;;;;6.27;3.53;;;12.30;1.00;;;;;;6298903;28;20249;-54
2022/09/16 06:51:18;;;;;;;8.03;3.90;;;12.80;1.00;;;;;;6297845;28;20236;-54
2022/09/16 06:54:21;;;;;;;3.63;3.40;;;12.90;1.00;;;;;;6292271;28;20233;-54
2022/09/16 06:57:25;;;;;;;7.57;4.13;;;12.90;1.00;;;;;;6290308;28;20221;-55
2022/09/16 07:00:28;;;;;;;3.70;3.40;;;12.80;1.00;;;;;;6300396;28;20261;-55
2022/09/16 07:03:31;;;;;;;5.93;3.80;;;12.70;1.00;;;;;;6294338;28;20767;-55
2022/09/16 07:06:35;;;;;;;4.43;3.80;;;12.60;1.00;;;;;;6301604;28;20232;-55
2022/09/16 07:09:58;;;;;;;3.90;3.53;;;12.70;1.00;;;;;;6279615;28;20328;-55
2022/09/16 07:13:02;;;;;;;4.90;3.60;;;12.70;1.00;;;;;;6282565;28;20233;-54
2022/09/16 07:16:07;;;;;;;4.23;4.03;;;12.80;1.00;;;;;;6291513;28;20237;-56
2022/09/16 07:19:15;;;;;;;4.17;3.87;;;12.90;1.00;;;;;;6293594;28;20347;-55
2022/09/16 07:22:18;;;;;;;5.63;3.63;;;13.00;1.00;;;;;;6284607;28;20242;-55
2022/09/16 07:25:21;;;;;;;3.97;3.47;;;13.00;1.00;;;;;;6292640;28;20243;-55
2022/09/16 07:28:25;;;;;;;8.00;3.77;;;13.00;1.00;;;;;;6294511;28;20252;-55
2022/09/16 07:31:30;;;;;;;3.57;3.27;;;13.20;1.00;;;;;;6300382;28;20712;-55
2022/09/16 07:34:33;;;;;;;3.30;3.10;;;13.30;1.00;;;;;;6278878;28;20734;-54
2022/09/16 07:37:36;;;;;;;4.83;3.20;;;13.40;1.00;;;;;;6287108;28;20233;-55
2022/09/16 07:40:44;;;;;;;3.37;3.10;;;13.40;1.00;;;;;;6292135;28;20722;-55
2022/09/16 07:43:49;;;;;;;6.93;3.20;;;13.40;1.00;;;;;;6278470;28;20233;-55
2022/09/16 07:46:52;;;;;;;4.43;2.57;;;13.40;1.00;;;;;;6288022;28;20412;-55
2022/09/16 07:49:55;;;;;;;4.90;2.70;;;13.40;1.00;;;;;;6293841;28;20248;-57
2022/09/16 07:52:58;;;;;;;3.07;2.80;;;13.60;1.00;;;;;;6280988;28;20238;-54
2022/09/16 07:56:03;;;;;;;5.10;3.00;;;13.60;1.00;;;;;;6282191;28;20237;-54
2022/09/16 07:59:10;;;;;;;2.67;2.43;;;13.70;1.00;;;;;;6296643;28;20240;-55
2022/09/16 08:02:19;;;;;;;3.87;2.53;;;13.90;1.00;;;;;;6283892;28;20712;-55
2022/09/16 08:05:22;;;;;;;4.30;2.83;;;14.00;1.00;;;;;;6283375;28;20321;-55
2022/09/16 08:08:25;;;;;;;5.47;2.90;;;14.10;1.00;;;;;;6294370;28;20551;-55
2022/09/16 08:11:30;;;;;;;5.40;2.60;;;14.00;1.00;;;;;;6285698;28;20242;-56
2022/09/16 08:14:34;;;;;;;4.50;2.20;;;14.10;1.00;;;;;;6293879;28;20240;-55
2022/09/16 08:17:37;;;;;;;2.60;2.40;;;14.10;1.00;;;;;;6298690;28;20487;-55
2022/09/16 08:20:40;;;;;;;3.67;2.30;;;14.20;1.00;;;;;;6295001;28;20241;-56
2022/09/16 08:23:43;;;;;;;3.30;2.43;;;14.40;1.00;;;;;;6292361;28;20225;-56
2022/09/16 08:26:46;;;;;;;3.63;2.40;;;14.30;1.00;;;;;;6294090;28;20600;-54
2022/09/16 08:29:51;;;;;;;2.40;2.20;;;14.40;1.00;;;;;;6292543;28;20278;-56
2022/09/16 08:32:56;;;;;;;2.33;2.03;;;14.40;1.00;;;;;;6289079;28;20237;-56
2022/09/16 08:36:00;;;;;;;3.13;2.10;;;14.50;1.00;;;;;;6296644;28;20237;-56
2022/09/16 08:39:03;;;;;;;2.40;2.27;;;14.50;1.00;;;;;;6284782;28;20584;-54
2022/09/16 08:42:32;;;;;;;4.20;2.53;;;14.60;1.00;;;;;;6295493;28;20260;-54
2022/09/16 08:45:46;;;;;;;5.00;2.60;;;14.80;1.00;;;;;;6261308;28;20230;-54
2022/09/16 08:48:55;;;;;;;6.60;2.70;;;14.80;1.00;;;;;;6266397;28;20249;-55
2022/09/16 08:52:00;;;;;;;2.83;2.53;;;14.80;1.00;;;;;;6279462;28;20236;-55
2022/09/16 08:55:10;;;;;;;3.67;2.50;;;14.70;1.00;;;;;;6280448;28;20234;-54
2022/09/16 08:58:16;;;;;;;3.13;2.67;;;14.70;1.00;;;;;;6268927;28;20261;-55
2022/09/16 09:01:27;;;;;;;3.00;2.30;;;14.80;1.00;;;;;;6268560;28;20257;-55
2022/09/16 09:04:30;;;;;;;2.47;2.27;;;14.80;1.00;;;;;;6266693;28;20232;-56
2022/09/16 09:07:45;;;;;;;3.20;2.70;;;14.90;1.00;;;;;;6291632;28;20236;-55
2022/09/16 09:10:51;;;;;;;2.50;2.40;;;15.20;1.00;;;;;;6291995;28;20236;-56
2022/09/16 09:14:24;;;;;;;4.63;2.40;;;15.40;1.00;;;;;;6288525;28;20260;-55
2022/09/16 09:17:38;;;;;;;6.07;2.47;;;15.50;1.00;;;;;;6286036;28;20251;-55
2022/09/16 09:20:56;;;;;;;3.03;2.33;;;15.50;1.00;;;;;;6294227;28;20578;-55
2022/09/16 09:24:21;;;;;;;4.00;2.40;;;15.40;1.00;;;;;;6290292;28;20229;-56
2022/09/16 09:27:27;;;;;;;4.53;2.17;;;15.30;1.00;;;;;;6292091;28;20237;-54
2022/09/16 09:30:33;;;;;;;3.73;2.53;;;15.40;1.00;;;;;;6280418;28;20361;-55
2022/09/16 09:33:42;;;;;;;3.17;2.77;;;15.50;1.00;;;;;;6294610;28;20242;-55
2022/09/16 09:37:02;;;;;;;4.70;2.30;;;15.70;1.00;;;;;;6291085;28;20242;-55
2022/09/16 09:40:13;;;;;;;5.13;2.00;;;15.80;1.00;;;;;;6287392;28;20249;-55
2022/09/16 09:43:20;;;;;;;5.67;2.20;;;15.90;1.00;;;;;;6288454;28;20239;-56
2022/09/16 09:46:28;;;;;;;3.33;2.20;;;16.10;1.00;;;;;;6257532;28;20225;-55
2022/09/16 09:49:37;;;;;;;3.03;2.63;;;16.20;1.00;;;;;;6297913;28;20328;-56
2022/09/16 09:52:45;;;;;;;4.10;2.10;;;16.30;1.00;;;;;;6290863;28;20604;-54
2022/09/16 09:55:51;;;;;;;7.33;2.43;;;16.50;1.00;;;;;;6295049;28;20755;-56
2022/09/16 09:59:02;;;;;;;9.20;2.87;;;16.50;1.00;;;;;;6277037;28;20367;-56
2022/09/16 10:02:14;;;;;;;3.20;1.97;;;16.60;1.00;;;;;;6283024;28;20233;-56
2022/09/16 10:05:22;;;;;;;5.10;2.30;;;16.80;1.00;;;;;;6297975;28;20224;-55
2022/09/16 10:08:29;;;;;;;3.50;2.20;;;16.70;1.00;;;;;;6267081;28;20261;-55
2022/09/16 10:11:33;;;;;;;8.27;2.23;;;16.50;1.00;;;;;;6269244;28;20297;-55
2022/09/16 10:14:38;;;;;;;7.67;2.60;;;16.40;1.00;;;;;;6271851;28;20237;-53
2022/09/16 10:17:48;;;;;;;7.63;2.50;;;16.20;1.00;;;;;;6274974;28;20237;-55
2022/09/16 10:21:04;;;;;;;5.13;2.67;;;16.10;1.00;;;;;;6283883;28;20257;-55
2022/09/16 10:24:31;;;;;;;6.03;2.23;;;16.00;1.00;;;;;;6286025;28;20729;-56
2022/09/16 10:27:36;;;;;;;2.43;1.93;;;16.10;1.00;;;;;;6276252;28;20592;-55
2022/09/16 10:30:47;;;;;;;4.83;2.07;;;16.30;1.00;;;;;;6292105;28;20260;-55
2022/09/16 10:33:50;;;;;;;4.83;2.50;;;16.50;1.00;;;;;;6286409;28;20266;-54
2022/09/16 10:37:13;;;;;;;7.93;2.47;;;16.70;1.00;;;;;;6287313;28;20245;-54
2022/09/16 10:40:18;;;;;;;3.27;2.00;;;16.70;1.00;;;;;;6296417;28;20226;-54
2022/09/16 10:43:22;;;;;;;3.63;2.20;;;16.80;1.00;;;;;;6266073;28;20234;-54
2022/09/16 10:46:26;;;;;;;4.30;1.97;;;16.90;1.00;;;;;;6279910;28;20244;-56
2022/09/16 10:49:38;;;;;;;8.87;2.37;;;17.10;1.00;;;;;;6288581;28;20251;-56
2022/09/16 10:52:44;;;;;;;4.27;2.10;;;17.10;1.00;;;;;;6283982;28;20230;-55
2022/09/16 10:55:57;;;;;;;4.70;2.10;;;17.00;1.00;;;;;;6289875;28;20297;-55
2022/09/16 10:59:05;;;;;;;4.07;2.23;;;17.00;1.00;;;;;;6284557;28;20238;-56
2022/09/16 11:02:25;;;;;;;5.57;2.10;;;17.00;1.00;;;;;;6285094;28;20326;-54
2022/09/16 11:05:33;;;;;;;3.77;2.23;;;16.90;1.00;;;;;;6285748;28;20240;-55
2022/09/16 11:08:52;;;;;;;5.23;2.03;;;17.00;1.00;;;;;;6286395;28;20234;-54
2022/09/16 11:12:14;;;;;;;4.93;2.20;;;17.10;1.00;;;;;;6275942;28;20595;-55
2022/09/16 11:15:28;;;;;;;3.70;1.97;;;17.30;1.00;;;;;;6280675;28;20242;-54
2022/09/16 11:18:50;;;;;;;3.73;2.30;;;17.50;1.00;;;;;;6292710;28;20279;-54
2022/09/16 11:22:12;;;;;;;4.13;2.00;;;17.40;1.00;;;;;;6279576;28;20263;-56
2022/09/16 11:25:32;;;;;;;4.77;2.43;;;17.20;1.00;;;;;;6292795;28;20220;-55
2022/09/16 11:29:02;;;;;;;2.27;2.07;;;17.00;1.00;;;;;;6282594;28;20742;-55
2022/09/16 11:32:14;;;;;;;4.03;2.27;;;16.90;1.00;;;;;;6292556;28;20232;-55
2022/09/16 11:35:33;;;;;;;5.03;2.60;;;16.80;1.00;;;;;;6284824;28;20237;-56
2022/09/16 11:38:46;;;;;;;2.70;2.20;;;16.70;1.00;;;;;;6280186;28;20237;-56
2022/09/16 11:41:57;;;;;;;3.53;2.07;;;16.80;1.00;;;;;;6292690;28;20256;-54
2022/09/16 11:45:15;;;;;;;4.93;2.30;;;16.70;1.00;;;;;;6275408;28;20237;-56
2022/09/16 11:48:35;;;;;;;2.57;2.00;;;16.70;1.00;;;;;;6269825;28;20312;-56
2022/09/16 11:51:53;;;;;;;6.90;2.40;;;16.80;1.00;;;;;;6287835;28;20841;-55
2022/09/16 11:55:20;;;;;;;7.53;2.23;;;16.70;1.00;;;;;;6288502;28;20793;-59
2022/09/16 11:58:31;;;;;;;4.07;2.20;;;16.70;1.00;;;;;;6287520;28;20757;-55
2022/09/16 12:01:39;;;;;;;4.27;2.63;;;16.60;1.00;;;;;;6291554;28;20363;-55
2022/09/16 12:04:46;;;;;;;4.03;2.10;;;16.60;1.00;;;;;;6285062;28;20273;-54
2022/09/16 12:07:56;;;;;;;4.03;2.27;;;16.70;1.00;;;;;;6279599;28;20230;-56
2022/09/16 12:11:03;;;;;;;4.10;2.03;;;16.60;1.00;;;;;;6292313;28;20241;-54
2022/09/16 12:14:14;;;;;;;3.33;1.83;;;16.50;1.00;;;;;;6281800;28;20233;-54
2022/09/16 12:17:21;;;;;;;2.20;2.10;;;16.60;1.00;;;;;;6276017;28;20234;-55
2022/09/16 12:20:29;;;;;;;4.07;2.17;;;16.70;1.00;;;;;;6277652;28;20239;-55
2022/09/16 12:23:36;;;;;;;2.33;2.10;;;16.80;1.00;;;;;;6290602;28;20241;-55
2022/09/16 12:26:43;;;;;;;2.47;2.27;;;17.00;1.00;;;;;;6293262;28;20376;-55
2022/09/16 12:29:53;;;;;;;3.17;2.03;;;17.30;1.00;;;;;;6290543;28;20241;-55
2022/09/16 12:33:02;;;;;;;6.83;2.00;;;17.50;1.00;;;;;;6297728;28;20702;-57
2022/09/16 12:36:07;;;;;;;2.07;1.97;;;17.90;1.00;;;;;;6291965;28;20256;-56
2022/09/16 12:39:11;;;;;;;2.27;1.80;;;18.10;1.00;;;;;;6286904;28;20749;-54
2022/09/16 12:43:00;;;;;;;2.33;2.00;;;17.90;1.00;;;;;;6290505;28;20238;-59
2022/09/16 12:46:35;;;;;;;2.03;1.90;;;17.90;1.00;;;;;;6293315;28;20302;-55
2022/09/16 12:50:07;;;;;;;1.73;1.63;;;17.80;1.00;;;;;;6290415;28;20229;-55
2022/09/16 12:53:54;;;;;;;2.73;2.00;;;17.80;1.00;;;;;;6285638;28;20226;-56
2022/09/16 12:57:17;;;;;;;4.30;2.00;;;17.80;1.00;;;;;;6283881;28;20225;-54
2022/09/16 13:00:22;;;;;;;3.77;1.80;;;17.70;1.00;;;;;;6285650;28;20367;-54
2022/09/16 13:03:30;;;;;;;2.13;1.80;;;17.80;1.00;;;;;;6298614;28;20234;-56
2022/09/16 13:06:36;;;;;;;2.63;1.77;;;17.90;1.00;;;;;;6289244;28;20244;-54
2022/09/16 13:09:40;;;;;;;2.10;2.00;;;18.10;1.00;;;;;;6284779;28;20320;-55
2022/09/16 13:12:50;;;;;;;6.23;1.80;;;18.30;1.00;;;;;;6284234;28;20229;-55
2022/09/16 13:15:56;;;;;;;6.30;2.03;;;18.40;1.00;;;;;;6289254;28;20248;-56
2022/09/16 13:19:24;;;;;;;5.17;2.00;;;18.30;1.00;;;;;;6283583;28;20233;-56
2022/09/16 13:22:32;;;;;;;10.97;2.60;;;18.40;1.00;;;;;;6287930;28;20640;-55
2022/09/16 13:25:47;;;;;;;2.00;1.60;;;18.40;1.00;;;;;;6287752;28;20243;-55
2022/09/16 13:28:50;;;;;;;3.13;1.83;;;18.50;1.00;;;;;;6286757;28;20268;-55
2022/09/16 13:31:53;;;;;;;3.77;1.80;;;18.40;1.00;;;;;;6293750;28;20244;-56
2022/09/16 13:35:04;;;;;;;3.90;2.03;;;18.40;1.00;;;;;;6293508;28;20225;-57
2022/09/16 13:38:35;;;;;;;2.83;1.80;;;18.40;1.00;;;;;;6285903;28;20234;-57
2022/09/16 13:41:40;;;;;;;2.87;1.80;;;18.40;1.00;;;;;;6270717;28;20272;-57
2022/09/16 13:44:43;;;;;;;2.00;1.80;;;18.50;1.00;;;;;;6267249;28;20520;-57
2022/09/16 13:47:49;;;;;;;1.80;1.70;;;18.50;1.00;;;;;;6282672;28;20371;-57
2022/09/16 13:50:57;;;;;;;3.33;2.03;;;18.40;1.00;;;;;;6291703;28;20852;-57
2022/09/16 13:54:03;;;;;;;2.07;1.87;;;18.50;1.00;;;;;;6293252;28;20224;-57
2022/09/16 13:57:27;;;;;;;1.73;1.70;;;18.50;1.00;;;;;;6288423;28;20702;-56
2022/09/16 14:00:37;;;;;;;3.93;1.83;;;18.50;1.00;;;;;;6284803;28;20732;-59
2022/09/16 14:03:48;;;;;;;2.60;2.00;;;18.40;1.00;;;;;;6294844;28;20236;-57
2022/09/16 14:07:05;;;;;;;1.90;1.80;;;18.30;1.00;;;;;;6280642;28;20594;-56
2022/09/16 14:10:18;;;;;;;3.40;2.03;;;18.10;1.00;;;;;;6278513;28;20583;-57
2022/09/16 14:13:22;;;;;;;3.60;1.67;;;18.00;1.00;;;;;;6283480;28;20236;-57
2022/09/16 14:16:29;;;;;;;3.90;1.90;;;18.00;1.00;;;;;;6294704;28;20732;-56
2022/09/16 14:19:36;;;;;;;1.87;1.70;;;18.10;1.00;;;;;;6285560;28;20241;-56
2022/09/16 14:22:43;;;;;;;5.37;1.87;;;18.20;1.00;;;;;;6287172;28;20508;-56
2022/09/16 14:25:46;;;;;;;5.47;1.90;;;18.40;1.00;;;;;;6286585;28;20239;-57
2022/09/16 14:28:49;;;;;;;2.97;2.10;;;18.40;1.00;;;;;;6290257;28;20578;-56
2022/09/16 14:31:55;;;;;;;4.37;1.93;;;18.60;1.00;;;;;;6293672;28;20225;-57
2022/09/16 14:35:02;;;;;;;6.00;2.20;;;18.60;1.00;;;;;;6283603;28;20240;-56
2022/09/16 14:38:07;;;;;;;2.30;2.20;;;18.50;1.00;;;;;;6287396;28;20256;-55
2022/09/16 14:41:34;;;;;;;1.83;1.73;;;18.40;1.00;;;;;;6289377;28;20693;-57
2022/09/16 14:44:41;;;;;;;2.70;1.80;;;18.40;1.00;;;;;;6289845;28;20387;-56
2022/09/16 14:47:45;;;;;;;2.83;1.77;;;18.50;1.00;;;;;;6290337;28;20575;-56
2022/09/16 14:50:55;;;;;;;4.23;1.70;;;18.60;1.00;;;;;;6289520;28;20468;-56
2022/09/16 14:54:00;;;;;;;5.33;2.13;;;18.70;1.00;;;;;;6281592;28;20245;-57
2022/09/16 14:57:19;;;;;;;2.23;1.80;;;18.80;1.00;;;;;;6276567;28;20878;-62
2022/09/16 15:00:26;;;;;;;5.40;2.20;;;18.80;1.00;;;;;;6281157;28;20235;-54
2022/09/16 15:03:36;;;;;;;4.30;1.83;;;18.60;1.00;;;;;;6279261;28;23341;-55
2022/09/16 15:06:45;;;;;;;5.13;1.90;;;18.50;1.00;;;;;;6279157;28;20237;-56
2022/09/16 15:09:53;;;;;;;3.50;1.60;;;18.50;1.00;;;;;;6286135;28;20339;-57
2022/09/16 15:12:59;;;;;;;4.30;2.10;;;18.50;1.00;;;;;;6294241;28;20240;-58
2022/09/16 15:16:04;;;;;;;7.60;1.97;;;18.50;1.00;;;;;;6285349;28;20617;-56
2022/09/16 15:19:16;;;;;;;4.10;1.77;;;18.40;1.00;;;;;;6298538;28;21049;-56
2022/09/16 15:22:20;;;;;;;3.53;2.27;;;18.30;1.00;;;;;;6295423;28;20244;-56
2022/09/16 15:25:27;;;;;;;2.60;2.00;;;18.20;1.00;;;;;;6294001;28;20229;-56
2022/09/16 15:28:30;;;;;;;2.30;1.60;;;18.10;1.00;;;;;;6287174;28;20239;-57
2022/09/16 15:31:35;;;;;;;2.63;1.70;;;18.00;1.00;;;;;;6280655;28;20240;-57
2022/09/16 15:34:38;;;;;;;3.17;1.77;;;17.90;1.00;;;;;;6287388;28;20247;-57
2022/09/16 15:37:42;;;;;;;2.97;1.93;;;17.80;1.00;;;;;;6286433;28;20221;-56
2022/09/16 15:40:46;;;;;;;5.60;2.10;;;17.70;1.00;;;;;;6278010;28;20233;-59
2022/09/16 15:43:49;;;;;;;2.53;1.83;;;17.60;1.00;;;;;;6287684;28;20221;-55
2022/09/16 15:46:52;;;;;;;2.13;1.83;;;17.60;1.00;;;;;;6283075;28;20701;-56
2022/09/16 15:50:01;;;;;;;4.40;2.13;;;17.50;1.00;;;;;;6286054;28;20605;-57
2022/09/16 15:53:09;;;;;;;2.63;2.07;;;17.60;1.00;;;;;;6284339;28;20244;-56
2022/09/16 15:56:23;;;;;;;4.30;1.90;;;17.60;1.00;;;;;;6285189;28;20620;-56
2022/09/16 15:59:31;;;;;;;3.70;2.10;;;17.50;1.00;;;;;;6275155;28;20224;-55
2022/09/16 16:02:38;;;;;;;6.83;2.17;;;17.50;1.00;;;;;;6290416;28;20733;-57
2022/09/16 16:05:51;;;;;;;3.43;2.00;;;17.40;1.00;;;;;;6281030;28;20596;-55
2022/09/16 16:08:56;;;;;;;7.63;2.60;;;17.30;1.00;;;;;;6264916;28;20238;-57
2022/09/16 16:12:02;;;;;;;2.83;1.90;;;17.30;1.00;;;;;;6270875;28;20230;-56
2022/09/16 16:15:07;;;;;;;4.33;2.47;;;17.10;1.00;;;;;;6295915;28;20724;-57
2022/09/16 16:18:10;;;;;;;2.53;1.90;;;17.00;1.00;;;;;;6289751;28;20233;-54
2022/09/16 16:21:15;;;;;;;4.83;2.30;;;16.90;1.00;;;;;;6296883;28;20237;-58
2022/09/16 16:24:18;;;;;;;5.27;2.10;;;16.90;1.00;;;;;;6296787;28;20354;-55
2022/09/16 16:27:22;;;;;;;2.37;2.20;;;16.90;1.00;;;;;;6305930;28;20229;-56
2022/09/16 16:30:25;;;;;;;2.80;2.00;;;16.90;1.00;;;;;;6286944;28;20237;-55
2022/09/16 16:33:28;;;;;;;4.47;2.13;;;16.90;1.00;;;;;;6290376;28;20244;-57